Time;durP1;ratioP1;P1;durP2;ratioP2;P2;SDS_P1;SDS_P2;PMS_P1;PMS_P2;Temp;Humidity;BMP_temperature;BMP_pressure;BME280_temperature;BME280_humidity;BME280_pressure;Samples;Min_cycle;Max_cycle;Signal;HPM_P1;HPM_P2
2022/06/18 00:00:13;;;;;;;3.85;1.88;;;21.40;99.90;;;;;;5109837;28;20040;-82
2022/06/18 00:02:41;;;;;;;4.60;2.22;;;21.40;99.90;;;;;;5108295;28;20054;-82
2022/06/18 00:05:08;;;;;;;4.38;1.98;;;21.40;99.90;;;;;;5093060;28;20593;-82
2022/06/18 00:07:39;;;;;;;3.70;1.77;;;21.30;99.90;;;;;;5109702;28;20040;-82
2022/06/18 00:10:07;;;;;;;3.92;2.05;;;21.30;99.90;;;;;;5109385;28;20408;-82
2022/06/18 00:15:24;;;;;;;5.07;2.15;;;21.30;99.90;;;;;;5109120;28;20054;-82
2022/06/18 00:17:50;;;;;;;7.53;2.25;;;21.20;99.90;;;;;;5110915;27;20500;-83
2022/06/18 00:20:20;;;;;;;6.10;2.08;;;21.20;99.90;;;;;;5109340;28;20039;-82
2022/06/18 00:22:49;;;;;;;8.75;2.25;;;21.20;99.90;;;;;;5111168;28;20561;-82
2022/06/18 00:25:22;;;;;;;3.80;2.10;;;21.10;99.90;;;;;;5108224;28;20903;-82
2022/06/18 00:27:48;;;;;;;3.20;2.10;;;21.10;99.90;;;;;;5110142;28;20473;-82
2022/06/18 00:30:18;;;;;;;3.45;2.15;;;21.10;99.90;;;;;;5109245;28;20047;-82
2022/06/18 00:32:44;;;;;;;4.35;2.15;;;21.10;99.90;;;;;;5107631;28;20050;-82
2022/06/18 00:35:10;;;;;;;3.67;2.20;;;21.10;99.90;;;;;;5109444;28;20043;-82
2022/06/18 00:37:37;;;;;;;5.22;2.85;;;21.10;99.90;;;;;;5109410;28;20047;-82
2022/06/18 00:40:32;;;;;;;4.32;2.17;;;21.10;99.90;;;;;;5110650;28;20089;-82
2022/06/18 00:43:02;;;;;;;3.88;2.22;;;21.10;99.90;;;;;;5100118;28;20396;-81
2022/06/18 00:45:30;;;;;;;5.15;2.42;;;21.00;99.90;;;;;;5109405;28;20385;-82
2022/06/18 00:48:14;;;;;;;5.15;2.40;;;21.00;99.90;;;;;;5109291;28;20044;-82
2022/06/18 00:51:12;;;;;;;11.52;2.50;;;21.00;99.90;;;;;;5107454;28;20048;-82
2022/06/18 00:53:52;;;;;;;5.05;2.58;;;20.90;99.90;;;;;;5094315;28;20143;-82
2022/06/18 00:56:24;;;;;;;4.47;2.33;;;20.80;99.90;;;;;;5108992;28;20044;-82
2022/06/18 00:58:57;;;;;;;4.55;2.35;;;20.80;99.90;;;;;;5107804;28;20119;-82
2022/06/18 01:01:30;;;;;;;7.10;2.85;;;20.70;99.90;;;;;;5108764;28;20055;-82
2022/06/18 01:03:56;;;;;;;6.30;2.88;;;20.70;99.90;;;;;;5109003;28;20492;-82
2022/06/18 01:06:27;;;;;;;4.07;2.35;;;20.60;99.90;;;;;;5109268;28;20039;-82
2022/06/18 01:09:01;;;;;;;5.38;2.80;;;20.50;99.90;;;;;;5110064;28;20373;-82
2022/06/18 01:11:31;;;;;;;4.90;3.00;;;20.50;99.90;;;;;;5106910;28;20058;-82
2022/06/18 01:13:58;;;;;;;5.68;2.83;;;20.50;99.90;;;;;;5110289;28;20040;-82
2022/06/18 01:16:25;;;;;;;4.50;2.45;;;20.50;99.90;;;;;;5107397;28;20043;-82
2022/06/18 01:18:52;;;;;;;5.53;3.17;;;20.40;99.90;;;;;;5090943;28;20054;-82
2022/06/18 01:21:51;;;;;;;7.32;2.90;;;20.40;99.90;;;;;;5107518;28;20044;-82
2022/06/18 01:24:21;;;;;;;4.88;3.28;;;20.40;99.90;;;;;;5107086;28;20438;-82
2022/06/18 01:26:50;;;;;;;5.93;3.90;;;20.30;99.90;;;;;;5108850;28;20477;-82
2022/06/18 01:29:16;;;;;;;7.88;3.63;;;20.30;99.90;;;;;;5107299;28;20040;-82
2022/06/18 01:31:43;;;;;;;10.05;3.65;;;20.30;99.90;;;;;;5107837;28;20405;-82
2022/06/18 01:34:09;;;;;;;5.03;3.70;;;20.10;99.90;;;;;;5090801;28;20157;-82
2022/06/18 01:36:36;;;;;;;7.63;3.88;;;20.10;99.90;;;;;;5073054;28;20058;-82
2022/06/18 01:39:11;;;;;;;6.22;3.50;;;20.10;99.90;;;;;;5108058;28;20052;-82
2022/06/18 01:41:51;;;;;;;9.82;3.60;;;20.10;99.90;;;;;;5106245;28;20624;-82
2022/06/18 01:44:38;;;;;;;5.25;3.30;;;20.10;99.90;;;;;;5107538;28;20051;-82
2022/06/18 01:47:33;;;;;;;5.88;3.83;;;20.00;99.90;;;;;;5090257;28;20051;-82
2022/06/18 01:50:10;;;;;;;6.18;4.07;;;20.00;99.90;;;;;;5083875;28;20083;-82
2022/06/18 01:52:40;;;;;;;6.00;3.90;;;19.90;99.90;;;;;;5107865;28;20051;-82
2022/06/18 01:55:14;;;;;;;7.18;4.10;;;19.90;99.90;;;;;;5106495;28;20082;-82
2022/06/18 01:57:45;;;;;;;5.60;4.32;;;19.80;99.90;;;;;;5106860;28;20476;-82
2022/06/18 02:00:18;;;;;;;6.40;4.75;;;19.80;99.90;;;;;;5107675;28;20073;-82
2022/06/18 02:02:45;;;;;;;8.70;4.38;;;19.80;99.90;;;;;;5105842;28;20484;-82
2022/06/18 02:05:13;;;;;;;6.50;4.22;;;19.70;99.90;;;;;;5090749;28;20039;-82
2022/06/18 02:07:40;;;;;;;8.98;4.55;;;19.70;99.90;;;;;;5088844;28;20422;-82
2022/06/18 02:10:17;;;;;;;8.27;4.97;;;19.70;99.90;;;;;;5090295;28;20095;-82
2022/06/18 02:12:44;;;;;;;9.02;4.15;;;19.70;99.90;;;;;;5106693;28;20083;-82
2022/06/18 02:15:27;;;;;;;7.40;4.03;;;19.70;99.90;;;;;;5106383;28;20044;-82
2022/06/18 02:17:55;;;;;;;7.40;5.25;;;19.60;99.90;;;;;;5090629;28;20081;-82
2022/06/18 02:20:26;;;;;;;8.05;5.70;;;19.60;99.90;;;;;;5106832;28;20050;-82
2022/06/18 02:22:55;;;;;;;10.98;5.78;;;19.60;99.90;;;;;;5108744;28;20035;-82
2022/06/18 02:25:24;;;;;;;7.72;5.07;;;19.60;99.90;;;;;;5089564;28;20048;-82
2022/06/18 02:27:57;;;;;;;9.57;5.68;;;19.50;99.90;;;;;;5106123;28;20035;-82
2022/06/18 02:30:27;;;;;;;8.27;5.47;;;19.50;99.90;;;;;;5108308;28;20043;-82
2022/06/18 02:33:01;;;;;;;11.50;5.35;;;19.50;99.90;;;;;;5106672;28;20028;-82
2022/06/18 02:35:34;;;;;;;8.00;5.55;;;19.40;99.90;;;;;;5108626;28;20522;-82
2022/06/18 02:38:00;;;;;;;12.32;6.43;;;19.40;99.90;;;;;;5105898;28;20632;-81
2022/06/18 02:40:29;;;;;;;9.43;6.20;;;19.30;99.90;;;;;;5106771;28;20401;-82
2022/06/18 02:42:58;;;;;;;12.70;7.20;;;19.70;99.90;;;;;;5107850;28;20492;-82
2022/06/18 02:45:26;;;;;;;9.90;5.50;;;19.20;99.90;;;;;;5107057;28;20217;-82
2022/06/18 02:47:55;;;;;;;8.27;6.03;;;18.60;99.90;;;;;;5108762;28;20604;-82
2022/06/18 02:50:23;;;;;;;9.25;6.28;;;19.10;99.90;;;;;;5106680;28;20039;-82
2022/06/18 02:52:53;;;;;;;14.90;7.28;;;19.00;99.90;;;;;;5106913;28;20043;-82
2022/06/18 02:55:25;;;;;;;15.65;7.50;;;18.90;99.90;;;;;;5106256;28;20085;-82
2022/06/18 02:57:55;;;;;;;10.48;6.57;;;18.90;99.90;;;;;;5107220;28;20179;-82
2022/06/18 03:00:21;;;;;;;12.30;6.80;;;18.80;99.90;;;;;;5107112;28;20403;-82
2022/06/18 03:02:47;;;;;;;7.93;6.50;;;18.80;99.90;;;;;;5106395;28;20051;-82
2022/06/18 03:05:39;;;;;;;9.25;7.13;;;18.70;99.90;;;;;;5108265;28;20050;-82
2022/06/18 03:08:05;;;;;;;10.63;7.22;;;18.70;99.90;;;;;;5103633;28;20083;-82
2022/06/18 03:13:18;;;;;;;16.50;7.40;;;18.60;99.90;;;;;;5108023;28;20047;-82
2022/06/18 03:15:48;;;;;;;15.60;7.38;;;18.50;99.90;;;;;;5106416;28;20089;-82
2022/06/18 03:18:16;;;;;;;15.75;7.93;;;18.50;99.90;;;;;;5107880;28;20565;-82
2022/06/18 03:20:56;;;;;;;13.00;8.05;;;18.40;99.90;;;;;;5107025;28;20040;-82
2022/06/18 03:23:23;;;;;;;13.40;8.13;;;18.40;99.90;;;;;;5109705;28;20051;-82
2022/06/18 03:25:50;;;;;;;12.90;8.55;;;18.30;99.90;;;;;;5093363;28;20043;-82
2022/06/18 03:28:19;;;;;;;15.80;8.30;;;18.30;99.90;;;;;;5109358;28;20067;-82
2022/06/18 03:30:44;;;;;;;16.05;9.65;;;18.20;99.90;;;;;;5111260;28;20127;-82
2022/06/18 03:33:12;;;;;;;12.90;9.13;;;18.10;99.90;;;;;;5114741;28;20463;-82
2022/06/18 03:35:39;;;;;;;17.02;9.57;;;18.10;99.90;;;;;;5100736;28;20040;-82
2022/06/18 03:38:07;;;;;;;18.33;8.88;;;18.10;99.90;;;;;;5117094;28;20039;-81
2022/06/18 03:40:32;;;;;;;14.82;9.23;;;18.00;99.90;;;;;;5102446;28;20039;-82
2022/06/18 03:42:58;;;;;;;19.90;9.43;;;18.00;99.90;;;;;;5119987;28;20457;-82
2022/06/18 03:45:24;;;;;;;18.02;9.90;;;18.00;99.90;;;;;;5120002;28;20048;-82
2022/06/18 03:47:50;;;;;;;17.95;9.93;;;17.90;99.90;;;;;;5118808;28;20562;-82
2022/06/18 03:50:19;;;;;;;16.40;10.02;;;17.90;99.90;;;;;;5109827;28;20039;-81
2022/06/18 03:52:45;;;;;;;15.88;9.93;;;17.80;99.90;;;;;;5111967;28;20470;-82
2022/06/18 03:55:15;;;;;;;19.92;11.52;;;17.80;99.90;;;;;;5108310;28;20088;-82
2022/06/18 03:57:41;;;;;;;20.23;11.73;;;17.80;99.90;;;;;;5109170;28;20075;-82
2022/06/18 04:00:12;;;;;;;22.25;11.23;;;17.70;99.90;;;;;;5111240;28;20475;-82
2022/06/18 04:02:38;;;;;;;15.25;10.40;;;17.70;99.90;;;;;;5109892;28;20104;-82
2022/06/18 04:05:04;;;;;;;14.25;10.00;;;17.70;99.90;;;;;;5110478;28;20090;-82
2022/06/18 04:07:30;;;;;;;18.63;10.77;;;17.70;99.90;;;;;;5107770;28;20044;-82
2022/06/18 04:09:56;;;;;;;19.52;10.18;;;17.60;99.90;;;;;;5093097;28;20036;-82
2022/06/18 04:12:22;;;;;;;19.52;11.55;;;17.60;99.90;;;;;;5108321;28;20052;-82
2022/06/18 04:14:48;;;;;;;19.80;11.07;;;17.60;99.90;;;;;;5092255;28;20039;-82
2022/06/18 04:17:16;;;;;;;19.48;11.70;;;17.60;99.90;;;;;;5109356;28;20048;-82
2022/06/18 04:19:42;;;;;;;18.33;12.15;;;17.60;99.90;;;;;;5108036;28;20768;-82
2022/06/18 04:22:08;;;;;;;16.25;10.50;;;17.60;99.90;;;;;;5110215;28;20503;-82
2022/06/18 04:24:35;;;;;;;25.52;12.57;;;17.60;99.90;;;;;;5108991;28;20392;-82
2022/06/18 04:27:01;;;;;;;20.55;11.82;;;17.60;99.90;;;;;;5109944;28;20044;-81
2022/06/18 04:29:28;;;;;;;18.88;11.98;;;17.60;99.90;;;;;;5108287;28;20108;-82
2022/06/18 04:31:54;;;;;;;18.00;10.77;;;17.60;99.90;;;;;;5108661;28;20051;-82
2022/06/18 04:34:20;;;;;;;21.80;11.15;;;17.60;99.90;;;;;;5107846;28;20047;-81
2022/06/18 04:36:45;;;;;;;20.40;12.57;;;17.60;99.90;;;;;;5107949;28;20067;-82
2022/06/18 04:39:12;;;;;;;15.18;10.25;;;17.60;99.90;;;;;;5092651;28;20047;-81
2022/06/18 04:41:38;;;;;;;17.98;10.93;;;17.70;99.90;;;;;;5107309;28;20434;-82
2022/06/18 04:44:04;;;;;;;17.85;11.68;;;17.70;99.90;;;;;;5109467;28;20119;-82
2022/06/18 04:46:30;;;;;;;20.05;12.27;;;17.70;99.90;;;;;;5107474;28;20044;-81
2022/06/18 04:48:55;;;;;;;20.48;10.98;;;17.80;99.90;;;;;;5091781;28;20192;-81
2022/06/18 04:51:22;;;;;;;21.23;12.63;;;17.80;99.90;;;;;;5108641;28;20048;-81
2022/06/18 04:53:48;;;;;;;24.92;11.55;;;17.80;99.90;;;;;;5108745;27;20051;-81
2022/06/18 04:56:14;;;;;;;27.35;10.48;;;17.90;99.90;;;;;;5092016;28;20161;-81
2022/06/18 04:58:40;;;;;;;22.05;11.13;;;17.90;99.90;;;;;;5107144;28;20177;-81
2022/06/18 05:01:06;;;;;;;16.45;10.15;;;18.00;99.90;;;;;;5109049;28;20050;-82
2022/06/18 05:03:32;;;;;;;20.80;10.70;;;18.00;99.90;;;;;;5107414;28;20051;-81
2022/06/18 05:05:58;;;;;;;21.17;11.35;;;18.10;99.90;;;;;;5108529;28;20048;-82
2022/06/18 05:08:25;;;;;;;31.15;10.75;;;18.20;99.90;;;;;;5108188;28;20039;-82
2022/06/18 05:10:51;;;;;;;28.17;11.88;;;18.20;99.90;;;;;;5107404;28;20051;-81
2022/06/18 05:13:18;;;;;;;22.33;10.73;;;18.30;99.90;;;;;;5108706;28;20048;-82
2022/06/18 05:15:45;;;;;;;22.98;10.27;;;18.30;99.90;;;;;;5106220;28;20484;-83
2022/06/18 05:18:16;;;;;;;20.45;10.27;;;18.40;99.90;;;;;;5091844;28;20075;-81
2022/06/18 05:20:43;;;;;;;25.77;11.07;;;18.50;99.90;;;;;;5106514;28;20028;-82
2022/06/18 05:23:13;;;;;;;20.77;10.63;;;18.50;99.90;;;;;;5107617;28;20088;-82
2022/06/18 05:25:39;;;;;;;19.83;9.80;;;18.60;99.90;;;;;;5107645;28;20127;-81
2022/06/18 05:28:05;;;;;;;22.75;9.43;;;18.60;99.90;;;;;;5106407;28;20123;-80
2022/06/18 05:30:31;;;;;;;17.83;9.95;;;18.60;99.90;;;;;;5109467;28;20102;-81
2022/06/18 05:32:57;;;;;;;18.95;9.20;;;18.70;99.90;;;;;;5105691;28;20050;-82
2022/06/18 05:35:22;;;;;;;15.98;9.52;;;18.70;99.90;;;;;;5108510;28;20134;-83
2022/06/18 05:37:50;;;;;;;20.02;9.43;;;19.00;99.90;;;;;;5105946;28;20089;-82
2022/06/18 05:40:16;;;;;;;15.43;9.20;;;18.90;99.90;;;;;;5107492;28;20101;-81
2022/06/18 05:42:42;;;;;;;17.75;8.80;;;18.90;99.90;;;;;;5106970;28;20054;-82
2022/06/18 05:45:08;;;;;;;16.48;8.50;;;19.00;99.90;;;;;;5088814;28;20131;-81
2022/06/18 05:47:34;;;;;;;17.15;9.05;;;19.10;99.90;;;;;;5108136;28;20467;-82
2022/06/18 05:50:02;;;;;;;14.18;8.27;;;19.20;99.90;;;;;;5088401;28;20109;-82
2022/06/18 05:52:29;;;;;;;15.07;8.27;;;19.20;99.90;;;;;;5109335;28;20035;-82
2022/06/18 05:54:55;;;;;;;16.80;8.15;;;19.40;99.90;;;;;;5107429;28;20127;-81
2022/06/18 05:57:21;;;;;;;15.88;7.03;;;19.50;99.90;;;;;;5107571;28;20032;-81
2022/06/18 05:59:48;;;;;;;17.15;7.65;;;19.00;99.90;;;;;;5108689;28;20047;-80
2022/06/18 06:02:16;;;;;;;18.15;8.50;;;19.70;99.90;;;;;;5106223;28;20520;-81
2022/06/18 06:04:42;;;;;;;19.77;8.20;;;19.70;99.90;;;;;;5107997;28;20048;-81
2022/06/18 06:07:26;;;;;;;17.63;7.97;;;19.80;99.90;;;;;;5106757;28;20051;-77
2022/06/18 06:12:38;;;;;;;18.10;6.97;;;20.00;99.90;;;;;;5108517;28;20094;-78
2022/06/18 06:15:05;;;;;;;16.23;7.72;;;20.20;99.90;;;;;;5107605;28;20067;-82
2022/06/18 06:17:32;;;;;;;14.60;6.65;;;20.30;99.90;;;;;;5107809;28;20504;-82
2022/06/18 06:20:17;;;;;;;12.10;5.82;;;20.30;99.90;;;;;;5071644;28;20047;-83
2022/06/18 06:22:43;;;;;;;13.50;6.22;;;20.40;99.90;;;;;;5107643;28;20054;-83
2022/06/18 06:25:09;;;;;;;13.02;6.57;;;20.50;99.90;;;;;;5106188;28;20040;-82
2022/06/18 06:27:34;;;;;;;9.77;6.93;;;20.60;99.90;;;;;;5106419;28;20073;-82
2022/06/18 06:30:01;;;;;;;15.15;6.28;;;20.90;99.90;;;;;;5073580;28;20048;-82
2022/06/18 06:32:26;;;;;;;10.15;5.30;;;20.80;99.90;;;;;;5105271;28;20124;-82
2022/06/18 06:34:52;;;;;;;10.70;5.55;;;20.90;99.90;;;;;;5107612;28;20043;-82
2022/06/18 06:37:18;;;;;;;13.85;5.20;;;21.00;99.90;;;;;;5104925;28;20073;-82
2022/06/18 06:39:43;;;;;;;11.20;5.05;;;21.10;99.90;;;;;;5107366;28;20047;-82
2022/06/18 06:42:09;;;;;;;13.07;4.47;;;21.20;99.90;;;;;;5106230;28;20396;-82
2022/06/18 06:44:35;;;;;;;7.38;3.65;;;21.30;99.90;;;;;;5092279;28;20132;-81
2022/06/18 06:47:01;;;;;;;11.70;4.55;;;21.40;99.90;;;;;;5092759;28;20055;-82
2022/06/18 06:49:27;;;;;;;9.98;4.47;;;21.40;99.90;;;;;;5092795;28;20529;-81
2022/06/18 06:51:54;;;;;;;13.00;4.25;;;21.60;99.90;;;;;;5112988;27;20107;-83
2022/06/18 06:54:20;;;;;;;12.07;4.38;;;21.70;99.90;;;;;;5095252;28;20040;-82
2022/06/18 06:59:30;;;;;;;8.43;3.83;;;21.80;99.90;;;;;;5114737;28;20043;-80
2022/06/18 07:01:56;;;;;;;9.05;3.83;;;21.90;99.90;;;;;;5113664;28;20092;-76
2022/06/18 07:04:22;;;;;;;9.90;4.82;;;21.90;99.90;;;;;;5114625;28;20036;-80
2022/06/18 07:06:48;;;;;;;11.02;3.90;;;21.90;99.90;;;;;;5111076;28;20053;-79
2022/06/18 07:09:14;;;;;;;9.23;4.28;;;21.90;99.90;;;;;;5114727;28;20040;-80
2022/06/18 07:11:39;;;;;;;10.90;3.53;;;21.90;99.90;;;;;;5094867;28;20135;-81
2022/06/18 07:14:06;;;;;;;9.77;3.80;;;21.90;99.90;;;;;;5114113;28;20051;-79
2022/06/18 07:16:32;;;;;;;10.02;3.85;;;21.90;99.90;;;;;;5112522;28;20116;-81
2022/06/18 07:18:59;;;;;;;13.52;4.22;;;21.90;99.90;;;;;;5115799;28;20082;-83
2022/06/18 07:21:25;;;;;;;10.48;3.70;;;22.00;99.90;;;;;;5115227;28;20079;-82
2022/06/18 07:23:51;;;;;;;6.80;3.30;;;22.10;99.90;;;;;;5114645;28;20035;-84
2022/06/18 07:26:19;;;;;;;9.40;4.03;;;22.10;99.90;;;;;;5114610;28;20477;-82
2022/06/18 07:28:45;;;;;;;11.02;3.55;;;22.20;99.90;;;;;;5096546;28;20071;-82
2022/06/18 07:31:15;;;;;;;9.00;3.45;;;22.30;99.90;;;;;;5113575;28;20059;-83
2022/06/18 07:33:43;;;;;;;8.55;3.45;;;22.40;99.90;;;;;;5091586;28;20468;-83
2022/06/18 07:36:09;;;;;;;7.88;2.65;;;22.40;99.90;;;;;;5093198;28;20103;-83
2022/06/18 07:38:34;;;;;;;5.85;2.70;;;22.50;99.90;;;;;;5114962;28;20144;-83
2022/06/18 07:41:00;;;;;;;11.32;2.80;;;22.50;99.90;;;;;;5097012;28;20043;-82
2022/06/18 07:43:40;;;;;;;5.32;2.30;;;22.60;99.90;;;;;;5114623;28;20352;-83
2022/06/18 07:46:08;;;;;;;6.47;2.55;;;22.70;99.90;;;;;;5112264;28;20056;-82
2022/06/18 07:48:35;;;;;;;5.38;2.17;;;22.70;99.90;;;;;;5117481;28;20071;-83
2022/06/18 07:51:03;;;;;;;6.05;2.25;;;22.70;99.90;;;;;;5110370;28;20095;-81
2022/06/18 07:53:29;;;;;;;10.27;2.42;;;22.80;99.90;;;;;;5111213;28;20051;-82
2022/06/18 07:55:56;;;;;;;8.15;2.08;;;22.80;99.90;;;;;;5110913;28;20044;-82
2022/06/18 07:58:22;;;;;;;6.35;1.80;;;23.00;99.90;;;;;;5111443;28;20043;-82
2022/06/18 08:00:51;;;;;;;3.35;1.52;;;23.00;99.90;;;;;;5112637;28;20575;-83
2022/06/18 08:03:17;;;;;;;5.18;1.60;;;23.10;99.90;;;;;;5108815;28;20093;-82
2022/06/18 08:05:44;;;;;;;4.40;1.50;;;23.30;99.90;;;;;;5111287;28;20056;-83
2022/06/18 08:08:12;;;;;;;4.57;1.48;;;23.10;99.90;;;;;;5110053;28;20095;-83
2022/06/18 08:10:40;;;;;;;4.43;1.27;;;23.30;99.90;;;;;;5098871;28;20105;-83
2022/06/18 08:13:06;;;;;;;2.78;0.60;;;23.40;99.90;;;;;;5112516;28;20243;-83
2022/06/18 08:15:33;;;;;;;3.92;0.70;;;23.50;99.90;;;;;;5113876;28;20063;-83
2022/06/18 08:18:00;;;;;;;4.03;1.13;;;23.50;99.90;;;;;;5097888;28;20051;-81
2022/06/18 08:20:28;;;;;;;4.78;0.98;;;23.70;99.90;;;;;;5112777;28;20107;-82
2022/06/18 08:22:59;;;;;;;3.17;0.80;;;23.80;99.90;;;;;;5081267;28;20092;-82
2022/06/18 08:25:27;;;;;;;1.50;0.50;;;23.90;99.90;;;;;;5110947;28;20101;-83
2022/06/18 08:27:55;;;;;;;1.38;0.60;;;23.90;99.90;;;;;;5115924;28;20070;-83
2022/06/18 08:30:21;;;;;;;1.52;0.60;;;23.90;99.90;;;;;;5115577;28;20052;-84
2022/06/18 08:32:51;;;;;;;3.30;0.60;;;23.80;99.90;;;;;;5100947;28;20048;-81
2022/06/18 08:35:17;;;;;;;3.95;0.80;;;23.80;99.90;;;;;;5084131;28;20044;-82
2022/06/18 08:37:43;;;;;;;2.97;0.80;;;23.80;99.90;;;;;;5099618;28;20043;-84
2022/06/18 08:40:34;;;;;;;2.85;0.70;;;23.80;99.90;;;;;;5118364;28;20054;-84
2022/06/18 08:43:31;;;;;;;2.25;0.80;;;23.80;99.90;;;;;;5116028;28;20040;-81
2022/06/18 08:46:18;;;;;;;2.83;0.80;;;23.90;99.90;;;;;;5117805;28;20047;-82
2022/06/18 08:48:56;;;;;;;1.30;0.60;;;23.80;99.90;;;;;;5117950;28;20043;-82
2022/06/18 08:51:52;;;;;;;2.05;0.77;;;23.90;99.90;;;;;;5098758;28;20051;-82
2022/06/18 08:54:42;;;;;;;1.88;0.77;;;23.90;99.90;;;;;;5101168;28;20111;-83
2022/06/18 08:57:20;;;;;;;2.15;0.63;;;24.10;99.90;;;;;;5117579;28;20047;-82
2022/06/18 09:00:04;;;;;;;1.45;0.47;;;24.10;99.90;;;;;;5116427;28;20450;-82
2022/06/18 09:02:39;;;;;;;1.73;0.60;;;24.10;99.90;;;;;;5110396;28;20543;-83
2022/06/18 09:05:08;;;;;;;2.88;0.90;;;24.20;99.90;;;;;;5109418;28;20044;-82
2022/06/18 09:07:55;;;;;;;6.93;0.82;;;24.20;99.90;;;;;;5109463;28;20507;-83
2022/06/18 09:10:47;;;;;;;4.07;0.52;;;24.20;99.90;;;;;;5108932;28;20051;-83
2022/06/18 09:13:19;;;;;;;2.93;0.53;;;24.20;99.90;;;;;;5104147;28;20095;-83
2022/06/18 09:15:49;;;;;;;1.85;0.60;;;24.20;99.90;;;;;;5109986;28;20369;-83
2022/06/18 09:18:42;;;;;;;3.63;0.73;;;24.30;99.90;;;;;;5107612;28;20090;-83
2022/06/18 09:21:23;;;;;;;2.60;0.70;;;24.20;99.90;;;;;;5107860;28;20079;-83
2022/06/18 09:24:11;;;;;;;2.65;0.80;;;24.30;99.90;;;;;;5110222;28;20038;-83
2022/06/18 09:26:40;;;;;;;1.60;0.65;;;24.30;99.90;;;;;;5107394;28;20175;-83
2022/06/18 09:29:36;;;;;;;2.40;0.75;;;24.40;99.90;;;;;;5107773;28;20043;-83
2022/06/18 09:32:10;;;;;;;3.25;1.10;;;24.60;99.90;;;;;;5107484;28;20087;-82
2022/06/18 09:34:52;;;;;;;3.10;0.98;;;24.70;99.90;;;;;;5108120;28;20054;-83
2022/06/18 09:37:36;;;;;;;1.55;0.70;;;24.70;99.90;;;;;;5108120;28;20047;-83
2022/06/18 09:40:05;;;;;;;3.38;0.73;;;24.80;99.90;;;;;;5109227;28;20403;-83
2022/06/18 09:42:47;;;;;;;4.47;0.80;;;25.00;99.90;;;;;;5107658;28;20554;-84
2022/06/18 09:45:21;;;;;;;3.22;0.85;;;25.10;99.90;;;;;;5105461;28;20066;-83
2022/06/18 09:47:49;;;;;;;4.35;1.02;;;24.90;99.90;;;;;;5108174;28;20048;-83
2022/06/18 09:50:25;;;;;;;3.50;0.80;;;24.90;99.90;;;;;;5107504;28;20047;-83
2022/06/18 09:53:00;;;;;;;1.58;0.38;;;24.90;99.90;;;;;;5107600;28;20079;-82
2022/06/18 09:55:39;;;;;;;5.40;0.70;;;24.70;99.90;;;;;;5106517;28;20047;-82
2022/06/18 09:58:16;;;;;;;3.35;0.40;;;24.60;99.90;;;;;;5108236;28;20392;-82
2022/06/18 10:00:44;;;;;;;3.85;0.65;;;24.60;99.90;;;;;;5107981;28;20039;-82
2022/06/18 10:08:56;;;;;;;3.10;0.80;;;24.80;99.90;;;;;;5106191;28;20075;-82
2022/06/18 10:11:23;;;;;;;2.33;0.70;;;24.90;99.90;;;;;;5108754;28;20066;-82
2022/06/18 10:13:56;;;;;;;3.38;0.52;;;24.90;99.90;;;;;;5107652;28;20040;-82
2022/06/18 10:16:30;;;;;;;1.17;0.50;;;25.00;99.90;;;;;;5108065;28;20039;-82
2022/06/18 10:19:30;;;;;;;1.48;0.45;;;25.10;99.90;;;;;;5108981;27;20110;-82
2022/06/18 10:22:23;;;;;;;2.72;0.70;;;25.20;99.90;;;;;;5107451;28;20051;-82
2022/06/18 10:25:14;;;;;;;2.92;0.63;;;25.30;99.90;;;;;;5108248;28;20073;-82
2022/06/18 10:28:07;;;;;;;2.78;0.55;;;25.30;99.90;;;;;;5108958;28;20457;-82
2022/06/18 10:30:38;;;;;;;1.58;0.43;;;25.30;99.90;;;;;;5107138;28;20043;-82
2022/06/18 10:33:32;;;;;;;3.72;1.10;;;25.20;99.90;;;;;;5105852;28;20047;-82
2022/06/18 10:36:28;;;;;;;1.67;0.50;;;25.20;99.90;;;;;;5106964;28;20058;-82
2022/06/18 10:39:12;;;;;;;1.98;0.30;;;25.40;99.90;;;;;;5105343;28;20126;-83
2022/06/18 10:42:07;;;;;;;3.30;0.30;;;25.50;99.90;;;;;;5106308;28;20055;-82
2022/06/18 10:44:48;;;;;;;2.78;0.43;;;25.70;99.90;;;;;;5076312;28;20560;-82
2022/06/18 10:47:17;;;;;;;2.03;0.50;;;25.80;99.90;;;;;;5106180;28;20087;-82
2022/06/18 10:49:44;;;;;;;2.80;0.30;;;25.90;99.90;;;;;;5106788;28;20112;-82
2022/06/18 10:52:21;;;;;;;4.38;0.40;;;25.90;99.90;;;;;;5105568;28;20043;-82
2022/06/18 10:54:47;;;;;;;1.15;0.38;;;26.10;99.90;;;;;;5105949;28;20135;-82
2022/06/18 10:57:25;;;;;;;2.72;0.10;;;26.20;99.90;;;;;;5106910;28;20119;-81
2022/06/18 10:59:50;;;;;;;0.57;0.20;;;26.30;98.10;;;;;;5105615;28;20044;-82
2022/06/18 11:02:38;;;;;;;2.40;0.68;;;26.40;99.50;;;;;;5107051;28;20381;-83
2022/06/18 11:05:17;;;;;;;1.55;0.38;;;26.60;99.90;;;;;;5088965;28;20050;-83
2022/06/18 11:07:49;;;;;;;1.58;0.40;;;26.70;98.50;;;;;;5105656;28;20042;-82
2022/06/18 11:10:30;;;;;;;1.05;0.30;;;26.60;99.80;;;;;;5106789;28;20047;-82
2022/06/18 11:13:00;;;;;;;0.30;0.20;;;26.50;99.20;;;;;;5104848;28;20503;-82
2022/06/18 11:15:36;;;;;;;1.15;0.22;;;26.30;99.00;;;;;;5089603;28;20044;-82
2022/06/18 11:18:03;;;;;;;1.50;0.47;;;26.40;99.00;;;;;;5089026;28;20036;-83
2022/06/18 11:20:31;;;;;;;1.10;0.40;;;26.50;98.50;;;;;;5105510;28;20051;-83
2022/06/18 11:23:13;;;;;;;1.05;0.30;;;26.50;98.90;;;;;;5106291;28;20059;-82
2022/06/18 11:25:39;;;;;;;1.08;0.50;;;26.60;98.00;;;;;;5104900;28;20043;-83
2022/06/18 11:28:33;;;;;;;2.65;0.63;;;26.60;98.50;;;;;;5106786;28;20047;-82
2022/06/18 11:31:02;;;;;;;3.92;0.82;;;26.70;98.20;;;;;;5100900;28;20089;-82
2022/06/18 11:33:41;;;;;;;4.47;0.40;;;26.70;97.60;;;;;;5105214;28;20043;-82
2022/06/18 11:36:16;;;;;;;5.10;1.20;;;26.60;96.70;;;;;;5106575;28;20051;-83
2022/06/18 11:38:53;;;;;;;2.63;0.70;;;26.60;96.90;;;;;;5104754;28;20092;-84
2022/06/18 11:41:38;;;;;;;2.25;0.60;;;26.60;95.20;;;;;;5106148;28;20166;-83
2022/06/18 11:44:09;;;;;;;2.35;0.35;;;26.50;95.20;;;;;;5108787;28;20059;-83
2022/06/18 11:47:16;;;;;;;2.25;0.68;;;26.40;95.60;;;;;;5092242;28;20126;-82
2022/06/18 11:49:48;;;;;;;3.28;0.82;;;26.40;93.20;;;;;;5093978;28;20083;-83
2022/06/18 11:52:16;;;;;;;4.82;0.50;;;26.20;94.80;;;;;;5092308;28;20082;-83
2022/06/18 11:55:01;;;;;;;5.28;0.85;;;26.20;94.70;;;;;;5109011;28;20142;-83
2022/06/18 11:57:47;;;;;;;1.75;0.30;;;26.20;92.70;;;;;;5111696;28;20447;-83
2022/06/18 12:00:22;;;;;;;3.10;0.70;;;26.10;92.30;;;;;;5091844;28;20043;-83
2022/06/18 12:03:06;;;;;;;3.50;0.50;;;26.20;92.30;;;;;;5110852;28;20122;-83
2022/06/18 12:05:40;;;;;;;3.08;0.60;;;26.20;92.60;;;;;;5109526;28;20043;-83
2022/06/18 12:08:06;;;;;;;1.77;0.57;;;26.20;92.50;;;;;;5091025;28;20043;-83
2022/06/18 12:10:35;;;;;;;3.75;0.50;;;26.30;92.90;;;;;;5110498;28;20055;-83
2022/06/18 12:13:13;;;;;;;3.22;0.60;;;26.30;91.30;;;;;;5108042;28;20089;-83
2022/06/18 12:15:57;;;;;;;5.80;0.60;;;26.30;91.90;;;;;;5092311;28;20047;-83
2022/06/18 12:18:44;;;;;;;2.00;0.52;;;26.20;90.30;;;;;;5109771;28;20511;-84
2022/06/18 12:21:38;;;;;;;4.60;0.60;;;26.20;91.50;;;;;;5090791;28;20128;-83
2022/06/18 12:24:15;;;;;;;2.28;0.60;;;26.20;91.10;;;;;;5109531;28;20511;-83
2022/06/18 12:27:10;;;;;;;4.03;0.50;;;26.20;92.10;;;;;;5110498;28;20039;-83
2022/06/18 12:29:51;;;;;;;3.53;0.60;;;26.30;92.40;;;;;;5107850;28;20488;-83
2022/06/18 12:32:31;;;;;;;1.50;0.60;;;26.30;93.00;;;;;;5109572;28;20039;-81
2022/06/18 12:35:15;;;;;;;3.42;0.85;;;26.30;91.40;;;;;;5109666;28;20122;-82
2022/06/18 12:38:14;;;;;;;3.08;0.55;;;26.20;90.50;;;;;;5108358;28;20591;-82
2022/06/18 12:41:02;;;;;;;4.25;0.82;;;26.20;91.00;;;;;;5066314;28;20066;-82
2022/06/18 12:43:44;;;;;;;5.57;0.63;;;26.20;91.00;;;;;;5108151;28;20117;-81
2022/06/18 12:46:42;;;;;;;3.05;0.88;;;26.30;90.00;;;;;;5107870;28;20578;-82
2022/06/18 12:49:30;;;;;;;3.28;1.00;;;26.20;88.30;;;;;;5108941;28;20047;-82
2022/06/18 12:52:15;;;;;;;5.05;0.98;;;26.20;87.10;;;;;;5107980;28;20043;-82
2022/06/18 12:55:02;;;;;;;6.15;1.00;;;26.10;87.00;;;;;;5106895;28;20122;-82
2022/06/18 12:57:53;;;;;;;6.97;1.13;;;26.00;87.10;;;;;;5109456;28;20047;-82
2022/06/18 13:00:40;;;;;;;6.47;1.02;;;25.90;84.20;;;;;;5107876;28;20408;-82
2022/06/18 13:03:27;;;;;;;6.93;1.33;;;25.80;84.00;;;;;;5107873;28;20342;-83
2022/06/18 13:06:26;;;;;;;6.38;1.08;;;25.70;84.90;;;;;;5109401;28;20456;-83
2022/06/18 13:08:55;;;;;;;3.80;0.43;;;25.60;84.50;;;;;;5107117;28;20049;-83
2022/06/18 13:11:46;;;;;;;5.72;1.42;;;25.60;85.40;;;;;;5110516;28;20373;-82
2022/06/18 13:14:30;;;;;;;6.55;1.23;;;25.60;83.80;;;;;;5064233;28;20062;-82
2022/06/18 13:17:01;;;;;;;3.40;0.60;;;25.50;81.50;;;;;;5111019;28;20427;-83
2022/06/18 13:19:37;;;;;;;4.38;0.70;;;25.40;81.20;;;;;;5111405;28;20096;-83
2022/06/18 13:22:04;;;;;;;2.33;0.60;;;25.30;80.70;;;;;;5110145;28;20047;-83
2022/06/18 13:30:22;;;;;;;4.78;1.10;;;24.70;80.30;;;;;;5071266;28;20074;-81
2022/06/18 13:33:07;;;;;;;2.20;0.77;;;24.20;79.40;;;;;;5114524;28;20075;-83